Aérodrome :
LOGIN :

S'inscrire | Disclaimer

   EN    FR    IT 

 










Légende :    VFR   VFR Marginal   IFR   IFR Intensif   IFR Très Intensif
Visi : 
Plafond : 
>= 8 km
>= 3000ft
5 à 8 km
1000 à 3000 ft
1500m à 5 km
500 à 1000 ft
800 à 1500m
200 à 500 ft
< 800m
< 200 ft
Symboles :   Orages  Brouillard  Fortes neiges  Fortes précipitations  Vent > 20 kt
SIGMETs :   Divers  Orages  Givrage  Turbulence  Onde Orograph.  Cendres Volcan.






- Altitude de l'aérodrome : 125 ft
- Code IATA : MGL


EDLN - Mönchengladbach

DERNIER METAR :
  • 190520Z AUTO 24006KT 210V280 9999 // FEW039/// SCT060/// 04/03 Q1014

METARs EXPIRÉS :
  • 190450Z AUTO 24006KT 210V270 9999 // FEW032/// SCT049/// BKN056/// 04/03 Q1014
  • 190420Z AUTO 24005KT 210V270 9999 // FEW039/// BKN048/// BKN054/// 04/03 Q1013
  • 190350Z AUTO 24005KT 210V290 9999 // BKN058/// 04/03 Q1013
  • 190320Z AUTO 26005KT 210V300 9999 // FEW021/// BKN031/// OVC054/// 05/03 Q1013
  • 190250Z AUTO 26005KT 220V300 9999 // FEW037/// BKN062/// 05/03 Q1013
  • 190220Z AUTO 25005KT 210V330 9999 // FEW051/// 05/03 Q1013

Prévision TAF périmée.



MET'MAP, la Météo Aéronautique d'un coup d'oeil ! - Copyright ORBIFLY Décembre 2007 - Disclaimer

ORBIFLY MET'MAP TEAM :

Programmation & Développement : Alexandra Zaïnal
Conception & Développement : Baudouin d'Aumeries
Co-Programmation & Développement : Marc-Olivier Méhu
Soutien technique & logistique : Manuel Goepfert

Contact : metmap@orbifly.com




SOURCES & CREDITS :

   NOAA